createdAt,value
2018-05-24T11:07:09.363Z,19.53
2018-05-24T11:08:13.261Z,19.48
2018-05-24T11:09:16.565Z,19.51
2018-05-24T11:10:19.705Z,19.40
2018-05-24T11:11:22.567Z,19.44
2018-05-24T11:12:25.824Z,19.43
2018-05-24T11:13:28.936Z,19.46
2018-05-24T11:14:31.813Z,19.45
2018-05-24T11:15:34.851Z,19.22
2018-05-24T11:16:38.614Z,19.13
2018-05-24T11:17:41.720Z,19.22
2018-05-24T11:18:44.806Z,19.15
2018-05-24T11:19:47.637Z,19.14
2018-05-24T11:20:50.680Z,19.03
2018-05-24T11:21:54.246Z,19.01
2018-05-24T11:22:57.409Z,19.13
2018-05-24T11:24:00.213Z,19.20
2018-05-24T11:25:03.425Z,19.28
2018-05-24T11:26:06.500Z,19.23
2018-05-24T11:27:09.871Z,19.15
2018-05-24T11:28:12.637Z,19.14
2018-05-24T11:29:15.399Z,19.24
2018-05-24T11:30:19.163Z,19.32
2018-05-24T11:31:22.282Z,19.41
2018-05-24T11:32:25.168Z,19.36
2018-05-24T11:33:27.982Z,19.20
2018-05-24T11:34:31.105Z,19.16
2018-05-24T11:35:34.642Z,19.12
2018-05-24T11:36:38.582Z,19.16
2018-05-24T11:37:41.704Z,19.15
2018-05-24T11:38:44.563Z,19.10
2018-05-24T11:39:47.411Z,19.09
2018-05-24T11:40:51.205Z,19.10
2018-05-24T11:41:54.197Z,19.20
2018-05-24T11:42:56.935Z,19.22
2018-05-24T11:43:59.767Z,19.18
2018-05-24T11:45:03.042Z,19.14
2018-05-24T11:46:06.627Z,19.21
2018-05-24T11:47:09.641Z,19.04
2018-05-24T11:48:12.473Z,19.05
2018-05-24T11:49:15.275Z,19.06
2018-05-24T11:50:18.318Z,19.01
2018-05-24T11:51:21.457Z,19.06
2018-05-24T11:52:24.646Z,19.11
2018-05-24T11:53:27.416Z,19.18
2018-05-24T11:54:30.823Z,18.98
2018-05-24T11:55:33.650Z,18.83
2018-05-24T11:56:36.484Z,18.72
2018-05-24T11:57:39.445Z,18.65
2018-05-24T11:58:43.201Z,18.72
2018-05-24T11:59:46.250Z,18.69
2018-05-24T12:00:49.285Z,18.69
2018-05-24T12:01:52.094Z,18.74
2018-05-24T12:02:55.397Z,18.78
2018-05-24T12:03:59.152Z,18.76
2018-05-24T12:05:02.111Z,18.68
2018-05-24T12:06:04.919Z,18.86
2018-05-24T12:07:08.650Z,18.87
2018-05-24T12:08:12.511Z,18.92
2018-05-24T12:09:15.384Z,18.98
2018-05-24T12:10:18.649Z,18.99
2018-05-24T12:11:21.468Z,19.08
2018-05-24T12:12:24.244Z,19.27
2018-05-24T12:13:27.084Z,19.25
2018-05-24T12:14:29.917Z,19.21
2018-05-24T12:15:33.218Z,19.23
2018-05-24T12:16:37.521Z,19.33
2018-05-24T12:17:41.542Z,19.33
2018-05-24T12:18:44.709Z,19.20
2018-05-24T12:19:47.588Z,19.22
2018-05-24T12:20:50.895Z,19.14
2018-05-24T12:21:54.864Z,19.15
2018-05-24T12:22:58.062Z,19.11
2018-05-24T12:24:00.909Z,19.05
2018-05-24T12:25:03.888Z,18.98
2018-05-24T12:26:08.264Z,19.08
2018-05-24T12:27:11.722Z,19.01
2018-05-24T12:28:14.562Z,18.91
2018-05-24T12:29:17.362Z,18.84
2018-05-24T12:30:20.171Z,18.92
2018-05-24T12:31:23.518Z,19.02
2018-05-24T12:32:26.284Z,19.20
2018-05-24T12:33:29.098Z,19.22
2018-05-24T12:34:32.086Z,19.19
2018-05-24T12:35:35.061Z,19.17
2018-05-24T12:36:37.849Z,19.26
2018-05-24T12:37:40.647Z,19.35
2018-05-24T12:38:43.482Z,19.37
2018-05-24T12:39:46.923Z,19.31
2018-05-24T12:40:51.006Z,19.34
2018-05-24T12:41:55.012Z,19.22
2018-05-24T12:42:57.786Z,19.05
2018-05-24T12:44:00.591Z,19.02
2018-05-24T12:45:03.425Z,18.98
2018-05-24T12:46:07.875Z,19.08
2018-05-24T12:47:11.888Z,18.94
2018-05-24T12:48:14.929Z,18.97
2018-05-24T12:49:17.802Z,19.03
2018-05-24T12:50:20.743Z,18.98
2018-05-24T12:51:23.530Z,18.80
2018-05-24T12:52:26.711Z,18.88
2018-05-24T12:53:29.489Z,18.91
2018-05-24T12:54:32.349Z,18.86
2018-05-24T12:55:35.223Z,18.86
2018-05-24T12:56:39.367Z,18.83
2018-05-24T12:57:43.106Z,18.72
2018-05-24T12:58:46.572Z,18.66
2018-05-24T12:59:49.382Z,18.61
2018-05-24T13:00:52.302Z,18.57
2018-05-24T13:01:55.283Z,18.64
2018-05-24T13:02:59.967Z,18.75
2018-05-24T13:04:03.887Z,18.80
2018-05-24T13:05:07.164Z,18.83
2018-05-24T13:06:09.963Z,18.83
2018-05-24T13:07:12.767Z,18.89
2018-05-24T13:08:15.754Z,18.93
2018-05-24T13:09:18.542Z,19.04
2018-05-24T13:10:21.709Z,19.19
2018-05-24T13:11:25.096Z,19.30
2018-05-24T13:12:28.802Z,19.61
2018-05-24T13:13:33.110Z,19.83
2018-05-24T13:14:36.520Z,19.72
2018-05-24T13:15:39.317Z,19.34
2018-05-24T13:16:42.097Z,19.30
2018-05-24T13:17:46.531Z,19.10
2018-05-24T13:18:50.444Z,18.96
2018-05-24T13:19:53.652Z,18.94
2018-05-24T13:20:56.628Z,19.03
2018-05-24T13:21:59.583Z,19.17
2018-05-24T13:23:02.487Z,19.27
2018-05-24T13:24:06.825Z,19.24
2018-05-24T13:25:10.083Z,19.31
2018-05-24T13:26:12.978Z,19.34
2018-05-24T13:27:15.870Z,19.33
2018-05-24T13:28:18.805Z,19.23
2018-05-24T13:29:22.521Z,19.17
2018-05-24T13:30:25.870Z,19.07
2018-05-24T13:31:28.662Z,19.23
2018-05-24T13:32:31.434Z,19.38
2018-05-24T13:33:34.835Z,19.45
2018-05-24T13:34:39.561Z,19.52
2018-05-24T13:35:42.478Z,19.40
2018-05-24T13:36:45.819Z,19.36
2018-05-24T13:37:48.681Z,19.28
2018-05-24T13:38:53.433Z,19.24
2018-05-24T13:39:57.632Z,19.20
2018-05-24T13:41:00.623Z,18.99
2018-05-24T13:42:03.686Z,18.99
2018-05-24T13:43:06.909Z,18.98
2018-05-24T13:44:11.040Z,19.04
2018-05-24T13:45:14.943Z,19.30
2018-05-24T13:46:17.773Z,19.50
2018-05-24T13:47:20.592Z,19.64
2018-05-24T13:48:23.400Z,19.72
2018-05-24T13:49:27.382Z,19.55
2018-05-24T13:50:32.910Z,19.37
2018-05-24T13:51:36.737Z,19.04
2018-05-24T13:52:39.710Z,18.84
2018-05-24T13:53:42.842Z,18.79
2018-05-24T13:54:46.076Z,18.82
2018-05-24T13:55:49.414Z,18.65
2018-05-24T13:56:52.626Z,18.63
2018-05-24T13:57:55.559Z,18.88
2018-05-24T13:58:59.187Z,18.82
2018-05-24T14:00:02.937Z,18.65
2018-05-24T14:01:06.745Z,18.61
2018-05-24T14:02:09.822Z,18.65
2018-05-24T14:03:12.686Z,18.75
2018-05-24T14:04:15.430Z,18.81
2018-05-24T14:05:18.468Z,18.66
2018-05-24T14:06:22.958Z,18.59
2018-05-24T14:07:26.292Z,18.64
2018-05-24T14:08:29.154Z,18.67
2018-05-24T14:09:31.971Z,18.73
2018-05-24T14:10:35.965Z,18.70
2018-05-24T14:11:40.213Z,18.77
2018-05-24T14:12:43.210Z,18.75
2018-05-24T14:13:46.514Z,18.77
2018-05-24T14:14:49.337Z,18.72
2018-05-24T14:15:53.199Z,18.70
2018-05-24T14:16:56.097Z,18.68
2018-05-24T14:17:59.429Z,18.62
2018-05-24T14:19:02.790Z,18.58
2018-05-24T14:20:06.599Z,18.64
2018-05-24T14:21:09.491Z,18.59
2018-05-24T14:22:12.746Z,18.56
2018-05-24T14:23:15.689Z,18.60
2018-05-24T14:24:18.614Z,18.70
2018-05-24T14:25:21.453Z,18.70
2018-05-24T14:26:26.002Z,18.68
2018-05-24T14:27:29.390Z,18.66
2018-05-24T14:28:32.302Z,18.70
2018-05-24T14:29:35.099Z,18.78
2018-05-24T14:30:37.907Z,18.86
2018-05-24T14:31:41.626Z,18.90
2018-05-24T14:32:45.188Z,19.02
2018-05-24T14:33:48.030Z,19.18
2018-05-24T14:34:50.810Z,19.18
2018-05-24T14:35:54.430Z,19.31
2018-05-24T14:36:57.794Z,19.40
2018-05-24T14:38:00.655Z,19.48
2018-05-24T14:39:03.872Z,19.47
2018-05-24T14:40:06.736Z,19.51
2018-05-24T14:41:10.342Z,19.41
2018-05-24T14:42:13.246Z,19.39
2018-05-24T14:43:16.153Z,19.47
2018-05-24T14:44:18.943Z,19.39
2018-05-24T14:45:22.789Z,19.14
2018-05-24T14:46:25.947Z,19.09
2018-05-24T14:47:29.044Z,19.22
2018-05-24T14:48:31.841Z,19.28
2018-05-24T14:49:34.808Z,19.29
2018-05-24T14:50:37.807Z,19.37
2018-05-24T14:51:41.066Z,19.41
2018-05-24T14:52:43.865Z,19.39
2018-05-24T14:53:46.627Z,19.42
2018-05-24T14:54:50.240Z,19.34
2018-05-24T14:55:53.341Z,19.38
2018-05-24T14:56:56.267Z,19.38
2018-05-24T14:57:59.576Z,19.41
2018-05-24T14:59:03.117Z,19.40
2018-05-24T15:00:06.362Z,19.34
2018-05-24T15:01:09.237Z,19.35
2018-05-24T15:02:12.053Z,19.44
2018-05-24T15:03:14.937Z,19.45
2018-05-24T15:04:19.246Z,19.57
2018-05-24T15:05:22.444Z,19.50
2018-05-24T15:06:25.230Z,19.66
2018-05-24T15:07:27.996Z,19.64
2018-05-24T15:08:32.214Z,19.65
2018-05-24T15:09:36.054Z,19.78
2018-05-24T15:10:39.808Z,19.85
2018-05-24T15:11:42.912Z,19.93
2018-05-24T15:12:45.741Z,19.96
2018-05-24T15:13:48.755Z,20.02
2018-05-24T15:14:51.843Z,20.02
2018-05-24T15:15:54.754Z,19.79
2018-05-24T15:16:57.999Z,19.76
2018-05-24T15:18:00.814Z,19.68
2018-05-24T15:19:05.032Z,19.66
2018-05-24T15:20:09.160Z,19.55
2018-05-24T15:21:12.030Z,19.47
2018-05-24T15:22:14.832Z,19.64
2018-05-24T15:23:18.999Z,19.55
2018-05-24T15:24:22.430Z,19.55
2018-05-24T15:25:26.401Z,19.46
2018-05-24T15:26:36.580Z,19.22
2018-05-24T15:27:39.482Z,19.28
2018-05-24T15:28:42.870Z,19.46
2018-05-24T15:29:46.069Z,19.53
2018-05-24T15:30:48.933Z,19.66
2018-05-24T15:31:52.380Z,19.72
2018-05-24T15:32:56.111Z,19.71
2018-05-24T15:33:59.231Z,19.66
2018-05-24T15:35:02.035Z,19.59
2018-05-24T15:36:05.173Z,19.28
2018-05-24T15:37:09.189Z,19.33
2018-05-24T15:38:12.416Z,19.52
2018-05-24T15:39:15.591Z,19.51
2018-05-24T15:40:18.392Z,19.60
2018-05-24T15:41:21.503Z,19.64
2018-05-24T15:42:25.644Z,19.51
2018-05-24T15:43:28.514Z,19.41
2018-05-24T15:44:31.285Z,19.27
2018-05-24T15:45:35.328Z,19.12
2018-05-24T15:46:38.328Z,19.20
2018-05-24T15:47:42.077Z,19.10
2018-05-24T15:48:46.009Z,19.08
2018-05-24T15:49:50.840Z,19.04
2018-05-24T15:50:53.753Z,18.82
2018-05-24T15:51:56.553Z,18.89
2018-05-24T15:53:00.141Z,18.92
2018-05-24T15:54:03.253Z,18.86
2018-05-24T15:55:06.399Z,18.82
2018-05-24T15:56:09.220Z,18.80
2018-05-24T15:57:12.141Z,19.04
2018-05-24T15:58:15.178Z,19.13
2018-05-24T15:59:18.341Z,19.15
2018-05-24T16:00:21.123Z,18.98
2018-05-24T16:01:25.296Z,19.20
2018-05-24T16:02:28.796Z,19.03
2018-05-24T16:03:33.053Z,19.21
2018-05-24T16:04:35.850Z,18.97
2018-05-24T16:05:38.671Z,18.72
2018-05-24T16:06:41.439Z,18.67
2018-05-24T16:07:45.749Z,18.71
2018-05-24T16:08:49.493Z,18.71
2018-05-24T16:09:52.414Z,18.77
2018-05-24T16:10:55.197Z,18.91
2018-05-24T16:11:58.140Z,18.96
2018-05-24T16:13:01.310Z,19.00
2018-05-24T16:14:04.558Z,19.05
2018-05-24T16:15:07.334Z,19.02
2018-05-24T16:16:11.069Z,18.89
2018-05-24T16:17:15.207Z,18.89
2018-05-24T16:18:18.367Z,18.96
2018-05-24T16:19:21.283Z,18.99
2018-05-24T16:20:24.069Z,18.94
2018-05-24T16:21:27.423Z,19.00
2018-05-24T16:22:30.659Z,19.11
2018-05-24T16:23:33.430Z,19.18
2018-05-24T16:24:36.686Z,19.11
2018-05-24T16:25:39.480Z,19.15
2018-05-24T16:26:43.570Z,19.11
2018-05-24T16:27:46.988Z,19.18
2018-05-24T16:28:49.794Z,19.21
2018-05-24T16:29:52.573Z,19.23
2018-05-24T16:30:55.419Z,19.19
2018-05-24T16:31:59.232Z,19.18
2018-05-24T16:33:02.575Z,19.16
2018-05-24T16:34:05.449Z,19.16
2018-05-24T16:35:08.383Z,19.25
2018-05-24T16:36:11.504Z,19.10
2018-05-24T16:37:14.458Z,18.94
2018-05-24T16:38:17.519Z,18.91
2018-05-24T16:39:20.456Z,18.92
2018-05-24T16:40:24.553Z,18.73
2018-05-24T16:41:27.497Z,18.74
2018-05-24T16:42:30.419Z,18.81
2018-05-24T16:43:33.428Z,18.94
2018-05-24T16:44:38.222Z,18.92
2018-05-24T16:45:43.150Z,18.87
2018-05-24T16:46:46.736Z,18.77
2018-05-24T16:47:49.608Z,18.78
2018-05-24T16:48:52.441Z,18.88
2018-05-24T16:49:55.623Z,19.03
2018-05-24T16:51:03.588Z,19.12
2018-05-24T16:52:12.075Z,19.17
2018-05-24T16:53:16.810Z,19.18
2018-05-24T16:54:23.133Z,19.33
2018-05-24T16:55:35.571Z,19.35
2018-05-24T16:56:39.567Z,19.41
2018-05-24T16:57:46.486Z,19.39
2018-05-24T16:58:50.827Z,19.30
2018-05-24T16:59:54.777Z,19.34
2018-05-24T17:00:57.642Z,19.32
2018-05-24T17:02:00.470Z,19.17
2018-05-24T17:03:03.475Z,19.16
2018-05-24T17:04:09.944Z,18.96
2018-05-24T17:05:13.886Z,18.80
2018-05-24T17:06:19.841Z,18.78
2018-05-24T17:07:24.644Z,18.50
2018-05-24T17:08:41.999Z,18.35
2018-05-24T17:09:47.168Z,18.30
2018-05-24T17:10:52.728Z,18.42
2018-05-24T17:11:57.776Z,18.44
2018-05-24T17:13:08.966Z,18.34
2018-05-24T17:14:12.273Z,18.29
2018-05-24T17:15:15.332Z,18.29
2018-05-24T17:16:20.332Z,18.24
2018-05-24T17:17:23.969Z,18.39
2018-05-24T17:18:26.893Z,18.45
2018-05-24T17:19:30.123Z,18.52
2018-05-24T17:20:33.289Z,18.58
2018-05-24T17:21:37.173Z,18.43
2018-05-24T17:22:42.117Z,18.43
2018-05-24T17:23:45.031Z,18.27
2018-05-24T17:24:48.876Z,18.10
2018-05-24T17:25:51.635Z,18.06
2018-05-24T17:26:54.747Z,18.21
2018-05-24T17:27:58.366Z,18.19
2018-05-24T17:29:01.436Z,18.17
2018-05-24T17:30:04.215Z,18.03
2018-05-24T17:31:07.181Z,17.94
2018-05-24T17:32:11.577Z,17.99
2018-05-24T17:33:16.122Z,17.96
2018-05-24T17:34:19.339Z,17.86
2018-05-24T17:35:22.502Z,17.79
2018-05-24T17:36:25.345Z,17.90
2018-05-24T17:37:29.800Z,17.98
2018-05-24T17:38:33.407Z,18.05
2018-05-24T17:39:36.287Z,18.18
2018-05-24T17:40:39.492Z,18.28
2018-05-24T17:41:42.817Z,18.41
2018-05-24T17:42:45.837Z,18.44
2018-05-24T17:43:51.830Z,18.24
2018-05-24T17:44:55.114Z,18.18
2018-05-24T17:45:57.951Z,18.22
2018-05-24T17:47:00.791Z,18.33
2018-05-24T17:48:03.883Z,18.16
2018-05-24T17:49:07.919Z,18.19
2018-05-24T17:50:12.604Z,18.31
2018-05-24T17:51:20.033Z,18.28
2018-05-24T17:52:24.352Z,18.29
2018-05-24T17:53:27.536Z,18.40
2018-05-24T17:54:30.838Z,18.26
2018-05-24T17:55:33.621Z,18.27
2018-05-24T17:56:37.518Z,18.31
2018-05-24T17:57:42.125Z,18.42
2018-05-24T17:58:45.284Z,18.43
2018-05-24T17:59:48.139Z,18.41
2018-05-24T18:00:50.974Z,18.42
2018-05-24T18:01:53.778Z,18.49
2018-05-24T18:02:57.661Z,18.50
2018-05-24T18:04:00.539Z,18.48
2018-05-24T18:05:05.002Z,18.54
2018-05-24T18:06:07.810Z,18.51
2018-05-24T18:07:11.228Z,18.43
2018-05-24T18:08:14.520Z,18.39
2018-05-24T18:09:17.568Z,18.51
2018-05-24T18:10:20.431Z,18.57
2018-05-24T18:11:23.323Z,18.57
2018-05-24T18:12:26.644Z,18.46
2018-05-24T18:13:33.259Z,18.48
2018-05-24T18:14:37.477Z,18.40
2018-05-24T18:15:40.373Z,18.29
2018-05-24T18:16:43.873Z,18.26
2018-05-24T18:17:46.666Z,18.37
2018-05-24T18:18:50.387Z,18.47
2018-05-24T18:19:55.078Z,18.36
2018-05-24T18:20:57.956Z,18.41
2018-05-24T18:22:00.781Z,18.48
2018-05-24T18:23:03.638Z,18.55
2018-05-24T18:24:07.879Z,18.61
2018-05-24T18:25:12.728Z,18.64
2018-05-24T18:26:15.987Z,18.59
2018-05-24T18:27:18.945Z,18.50
2018-05-24T18:28:21.853Z,18.50
2018-05-24T18:29:25.584Z,18.54
2018-05-24T18:30:28.845Z,18.41
2018-05-24T18:31:32.185Z,18.39
2018-05-24T18:32:35.126Z,18.47
2018-05-24T18:33:37.920Z,18.51
2018-05-24T18:34:41.149Z,18.53
2018-05-24T18:35:44.186Z,18.58
2018-05-24T18:36:46.991Z,18.47
2018-05-24T18:37:50.921Z,18.46
2018-05-24T18:38:55.188Z,18.47
2018-05-24T18:40:01.903Z,18.48
2018-05-24T18:41:05.712Z,18.47
2018-05-24T18:42:10.127Z,18.49
2018-05-24T18:43:12.928Z,18.56
2018-05-24T18:44:16.322Z,18.63
2018-05-24T18:45:19.180Z,18.63
2018-05-24T18:46:23.841Z,18.62
2018-05-24T18:47:26.764Z,18.42
2018-05-24T18:48:31.111Z,18.32
2018-05-24T18:49:33.956Z,18.30
2018-05-24T18:50:37.039Z,18.36
2018-05-24T18:51:39.829Z,18.44
2018-05-24T18:52:43.380Z,18.44
2018-05-24T18:53:48.111Z,18.44
2018-05-24T18:54:50.910Z,18.51
2018-05-24T18:55:53.757Z,18.49
2018-05-24T18:56:56.867Z,18.49
2018-05-24T18:58:00.828Z,18.41
2018-05-24T18:59:06.566Z,18.32
2018-05-24T19:00:12.986Z,18.32
2018-05-24T19:01:20.201Z,18.33
2018-05-24T19:02:25.442Z,18.38
2018-05-24T19:03:30.228Z,18.36
2018-05-24T19:04:34.122Z,18.32
2018-05-24T19:05:37.095Z,18.35
2018-05-24T19:06:39.975Z,18.43
2018-05-24T19:07:42.858Z,18.43
2018-05-24T19:08:46.170Z,18.36
2018-05-24T19:09:49.755Z,18.23
2018-05-24T19:10:52.629Z,18.12
2018-05-24T19:11:55.484Z,18.12
2018-05-24T19:12:58.539Z,18.15
2018-05-24T19:14:01.764Z,18.18
2018-05-24T19:15:04.865Z,18.23
2018-05-24T19:16:07.770Z,18.23
2018-05-24T19:17:10.599Z,18.19
2018-05-24T19:18:14.821Z,18.22
2018-05-24T19:19:19.703Z,18.21
2018-05-24T19:20:24.124Z,18.23
2018-05-24T19:21:27.468Z,18.26
2018-05-24T19:22:30.378Z,18.16
2018-05-24T19:23:33.416Z,18.13
2018-05-24T19:24:37.290Z,18.07
2018-05-24T19:25:40.259Z,18.07
2018-05-24T19:26:43.077Z,18.11
2018-05-24T19:27:46.393Z,18.16
2018-05-24T19:28:49.557Z,18.10
2018-05-24T19:29:52.682Z,18.06
2018-05-24T19:30:55.450Z,18.07
2018-05-24T19:31:58.285Z,18.09
2018-05-24T19:33:01.547Z,18.02
2018-05-24T19:34:05.941Z,18.00
2018-05-24T19:35:08.941Z,18.03
2018-05-24T19:36:11.750Z,18.01
2018-05-24T19:37:14.542Z,18.07
2018-05-24T19:38:18.478Z,18.00
2018-05-24T19:39:22.009Z,17.94
2018-05-24T19:40:25.198Z,17.98
2018-05-24T19:41:28.115Z,18.04
2018-05-24T19:42:30.918Z,18.09
2018-05-24T19:43:34.235Z,18.07
2018-05-24T19:44:37.435Z,18.07
2018-05-24T19:45:40.278Z,18.06
2018-05-24T19:46:43.446Z,18.11
2018-05-24T19:47:47.454Z,18.11
2018-05-24T19:48:50.438Z,18.15
2018-05-24T19:49:53.318Z,18.17
2018-05-24T19:50:56.190Z,18.15
2018-05-24T19:51:58.968Z,18.16
2018-05-24T19:53:03.088Z,18.19
2018-05-24T19:54:06.366Z,18.25
2018-05-24T19:55:09.150Z,18.28
2018-05-24T19:56:11.974Z,18.17
2018-05-24T19:57:14.927Z,18.11
2018-05-24T19:58:18.686Z,18.03
2018-05-24T19:59:22.656Z,18.02
2018-05-24T20:00:25.499Z,18.03
2018-05-24T20:01:28.298Z,18.15
2018-05-24T20:02:31.601Z,18.22
2018-05-24T20:03:34.687Z,18.28
2018-05-24T20:04:37.718Z,18.36
2018-05-24T20:05:40.967Z,18.38
2018-05-24T20:06:43.800Z,18.42
2018-05-24T20:07:47.824Z,18.43
2018-05-24T20:08:50.921Z,18.41
2018-05-24T20:09:53.725Z,18.44
2018-05-24T20:10:56.490Z,18.49
2018-05-24T20:12:00.319Z,18.42
2018-05-24T20:13:03.316Z,18.27
2018-05-24T20:14:06.279Z,18.21
2018-05-24T20:15:09.043Z,18.23
2018-05-24T20:16:12.129Z,18.28
2018-05-24T20:17:15.150Z,18.25
2018-05-24T20:18:18.509Z,18.22
2018-05-24T20:19:21.298Z,18.20
2018-05-24T20:20:24.142Z,18.23
2018-05-24T20:21:27.498Z,18.27
2018-05-24T20:22:30.411Z,18.22
2018-05-24T20:23:33.995Z,18.16
2018-05-24T20:24:36.823Z,18.11
2018-05-24T20:25:42.353Z,17.99
2018-05-24T20:26:46.397Z,17.89
2018-05-24T20:27:49.418Z,17.80
2018-05-24T20:28:52.225Z,17.89
2018-05-24T20:29:55.415Z,17.94
2018-05-24T20:30:58.308Z,18.03
2018-05-24T20:32:01.738Z,18.05
2018-05-24T20:33:04.534Z,18.11
2018-05-24T20:34:07.314Z,18.15
2018-05-24T20:35:10.119Z,18.17
2018-05-24T20:36:13.575Z,18.23
2018-05-24T20:37:16.355Z,18.25
2018-05-24T20:38:19.223Z,18.28
2018-05-24T20:39:22.224Z,18.34
2018-05-24T20:40:24.988Z,18.38
2018-05-24T20:41:27.768Z,18.40
2018-05-24T20:42:31.354Z,18.45
2018-05-24T20:43:34.772Z,18.39
2018-05-24T20:44:37.545Z,18.45
2018-05-24T20:45:40.677Z,18.49
2018-05-24T20:46:43.628Z,18.38
2018-05-24T20:47:46.535Z,18.40
2018-05-24T20:48:49.711Z,18.45
2018-05-24T20:49:52.483Z,18.44
2018-05-24T20:50:55.338Z,18.45
2018-05-24T20:51:58.187Z,18.50
2018-05-24T20:53:01.026Z,18.56
2018-05-24T20:54:03.835Z,18.55
2018-05-24T20:55:07.044Z,18.54
2018-05-24T20:56:10.031Z,18.55
2018-05-24T20:57:12.824Z,18.58
2018-05-24T20:58:15.688Z,18.60
2018-05-24T20:59:18.624Z,18.63
2018-05-24T21:00:21.455Z,18.64
2018-05-24T21:01:24.589Z,18.64
2018-05-24T21:02:27.520Z,18.62
2018-05-24T21:03:30.778Z,18.58
2018-05-24T21:04:33.854Z,18.57
2018-05-24T21:05:36.695Z,18.56
2018-05-24T21:06:39.556Z,18.53
2018-05-24T21:07:43.493Z,18.51
2018-05-24T21:08:46.931Z,18.38
2018-05-24T21:09:49.739Z,18.24
2018-05-24T21:10:53.398Z,18.24
2018-05-24T21:11:56.356Z,18.30
2018-05-24T21:13:00.894Z,18.41
2018-05-24T21:14:04.364Z,18.50
2018-05-24T21:15:07.188Z,18.54
2018-05-24T21:16:10.466Z,18.54
2018-05-24T21:17:13.696Z,18.54
2018-05-24T21:18:16.956Z,18.55
2018-05-24T21:19:19.829Z,18.57
2018-05-24T21:20:23.339Z,18.61
2018-05-24T21:21:26.190Z,18.64
2018-05-24T21:22:29.025Z,18.66
2018-05-24T21:23:31.805Z,18.67
2018-05-24T21:24:34.974Z,18.66
2018-05-24T21:25:37.764Z,18.63
2018-05-24T21:26:41.034Z,18.63
2018-05-24T21:27:44.269Z,18.64
2018-05-24T21:28:47.283Z,18.60
2018-05-24T21:29:50.529Z,18.64
2018-05-24T21:30:53.498Z,18.67
2018-05-24T21:31:56.292Z,18.68
2018-05-24T21:32:59.371Z,18.70
2018-05-24T21:34:02.257Z,18.73
2018-05-24T21:35:05.114Z,18.75
2018-05-24T21:36:07.911Z,18.74
2018-05-24T21:37:10.753Z,18.77
2018-05-24T21:38:13.511Z,18.71
2018-05-24T21:39:16.643Z,18.69
2018-05-24T21:40:19.443Z,18.69
2018-05-24T21:41:22.233Z,18.71
2018-05-24T21:42:24.987Z,18.72
2018-05-24T21:43:27.787Z,18.71
2018-05-24T21:44:30.671Z,18.54
2018-05-24T21:45:34.031Z,18.58
2018-05-24T21:46:36.782Z,18.53
2018-05-24T21:47:39.556Z,18.57
2018-05-24T21:48:42.764Z,18.59
2018-05-24T21:49:45.514Z,18.54
2018-05-24T21:50:48.638Z,18.53
2018-05-24T21:51:51.840Z,18.53
2018-05-24T21:52:54.823Z,18.42
2018-05-24T21:53:57.583Z,18.43
2018-05-24T21:55:00.417Z,18.46
2018-05-24T21:56:03.230Z,18.44
2018-05-24T21:57:06.610Z,18.40
2018-05-24T21:58:09.449Z,18.40
2018-05-24T21:59:12.855Z,18.40
2018-05-24T22:00:15.834Z,18.34
2018-05-24T22:01:18.586Z,18.29
2018-05-24T22:02:21.581Z,18.27
2018-05-24T22:03:24.846Z,18.20
2018-05-24T22:04:27.613Z,18.23
2018-05-24T22:05:30.393Z,18.15
2018-05-24T22:06:33.222Z,18.16
2018-05-24T22:07:36.378Z,18.14
2018-05-24T22:08:39.135Z,18.06
2018-05-24T22:09:42.398Z,18.10
2018-05-24T22:10:46.089Z,18.09
2018-05-24T22:11:50.414Z,18.09
2018-05-24T22:12:53.217Z,18.06
2018-05-24T22:13:56.006Z,18.05
2018-05-24T22:14:58.872Z,18.06
2018-05-24T22:16:02.308Z,18.06
2018-05-24T22:17:05.528Z,18.05
2018-05-24T22:18:08.293Z,17.98
2018-05-24T22:19:11.085Z,17.95
2018-05-24T22:20:13.826Z,17.93
2018-05-24T22:21:16.624Z,17.81
2018-05-24T22:22:19.779Z,17.82
2018-05-24T22:23:22.551Z,17.80
2018-05-24T22:24:25.396Z,17.82
2018-05-24T22:25:28.453Z,17.85
2018-05-24T22:26:31.497Z,17.83
2018-05-24T22:27:34.319Z,17.77
2018-05-24T22:28:37.440Z,17.70
2018-05-24T22:29:40.211Z,17.67
2018-05-24T22:30:43.039Z,17.68
2018-05-24T22:31:46.476Z,17.68
2018-05-24T22:32:49.215Z,17.67
2018-05-24T22:33:52.005Z,17.66
2018-05-24T22:34:55.085Z,17.66
2018-05-24T22:35:57.864Z,17.70
2018-05-24T22:37:00.667Z,17.78
2018-05-24T22:38:03.493Z,17.84
2018-05-24T22:39:06.315Z,17.92
2018-05-24T22:40:09.111Z,17.98
2018-05-24T22:41:12.320Z,18.01
2018-05-24T22:42:15.179Z,18.04
2018-05-24T22:43:18.094Z,18.07
2018-05-24T22:44:20.835Z,18.11
2018-05-24T22:45:23.593Z,18.14
2018-05-24T22:46:26.370Z,18.12
2018-05-24T22:47:29.565Z,18.08
2018-05-24T22:48:32.450Z,18.01
2018-05-24T22:49:35.383Z,17.91
2018-05-24T22:50:38.228Z,17.91
2018-05-24T22:51:41.011Z,17.91
2018-05-24T22:52:43.787Z,17.98
2018-05-24T22:53:47.005Z,17.99
2018-05-24T22:54:49.778Z,18.06
2018-05-24T22:55:52.539Z,18.06
2018-05-24T22:56:55.291Z,18.12
2018-05-24T22:57:58.072Z,18.18
2018-05-24T22:59:00.831Z,18.23
2018-05-24T23:00:04.063Z,18.15
2018-05-24T23:01:06.863Z,18.11
2018-05-24T23:02:09.699Z,18.07
2018-05-24T23:03:12.471Z,18.04
2018-05-24T23:04:15.304Z,18.05
2018-05-24T23:05:18.079Z,18.03
2018-05-24T23:06:21.340Z,18.08
2018-05-24T23:07:24.129Z,18.07
2018-05-24T23:08:26.978Z,18.06
2018-05-24T23:09:29.767Z,18.08
2018-05-24T23:10:32.638Z,18.07
2018-05-24T23:11:35.426Z,18.02
2018-05-24T23:12:38.540Z,18.02
2018-05-24T23:13:41.306Z,18.00
2018-05-24T23:14:44.104Z,17.99
2018-05-24T23:15:46.935Z,18.01
2018-05-24T23:16:49.686Z,18.04
2018-05-24T23:17:52.450Z,18.00
2018-05-24T23:18:55.566Z,17.80
2018-05-24T23:19:58.321Z,17.41
2018-05-24T23:21:01.149Z,17.31
2018-05-24T23:22:03.934Z,17.44
2018-05-24T23:23:06.697Z,17.44
2018-05-24T23:24:09.462Z,17.54
2018-05-24T23:25:12.580Z,17.55
2018-05-24T23:26:15.363Z,17.66
2018-05-24T23:27:18.259Z,17.74
2018-05-24T23:28:21.018Z,17.76
2018-05-24T23:29:23.828Z,17.77
2018-05-24T23:30:26.590Z,17.77
2018-05-24T23:31:29.841Z,17.79
2018-05-24T23:32:32.625Z,17.86
2018-05-24T23:33:35.421Z,17.85
2018-05-24T23:34:38.179Z,17.89
2018-05-24T23:35:40.954Z,17.93
2018-05-24T23:36:43.771Z,17.99
2018-05-24T23:37:46.988Z,18.02
2018-05-24T23:38:49.755Z,18.02
2018-05-24T23:39:52.503Z,18.01
2018-05-24T23:40:55.271Z,18.02
2018-05-24T23:41:58.015Z,18.03
2018-05-24T23:43:00.854Z,18.07
2018-05-24T23:44:04.132Z,18.09
2018-05-24T23:45:06.919Z,18.09
2018-05-24T23:46:09.672Z,18.10
2018-05-24T23:47:12.430Z,18.13
2018-05-24T23:48:15.174Z,18.13
2018-05-24T23:49:17.954Z,18.11
2018-05-24T23:50:21.151Z,18.10
2018-05-24T23:51:23.902Z,18.08
2018-05-24T23:52:26.664Z,18.10
2018-05-24T23:53:29.462Z,18.13
2018-05-24T23:54:32.224Z,18.13
2018-05-24T23:55:34.980Z,18.10
2018-05-24T23:56:38.379Z,18.09
2018-05-24T23:57:41.140Z,18.03
2018-05-24T23:58:44.592Z,18.05
2018-05-24T23:59:47.347Z,18.08
